Logo AVAMET
Benvolgut visitant, si us plau, ingressa Recuperar contrasenya

Finestrat la Cala

Dades diàries. Acumulats / Últims 30 dies disponibles

Data Temperatura (°C) Humitat rel. (%) Pressió rel. (hPa) Vent (km/h) Precipitació
Mínima Mitjana Màxima Amplitud
tèrmica
Mínima Mitjana Màxima Mínima Mitjana Màxima Predom. Mitjana Ràfega
màxima
Total
(mm)
Índex-n
Mínima Mitjana Màxima Mínima Mitjana Màxima n
0 a 1
P0 max
mm 5'
Dades mensuals acumulades fins l'últim dia disponible
07/2019 21,6 23,6 27,2 26,8 28,8 30,4 35,5 13,9 23 61 84 1.010 1.015 1.018   5,3 30,5 1,5
Dades anuals acumulades fins l'últim dia disponible
2019 6,6 14,7 27,2 18,4 13,4 22,3 36,1 29,5 10 61 95 1.000 1.019 1.036   5,9 72,4 171,6
Últims 30 dies disponibles
19-07-2019 22,2     26,5     31,1 8,9 41 62 76 1.015 1.016 1.018 SSE 6,3 25,7 0,0
18-07-2019 22,7     25,7     28,8 6,1 50 67 78 1.015 1.016 1.017 SSO 3,6 17,7 0,0
17-07-2019 23,8     27,2     30,0 6,2 36 54 66 1.014 1.015 1.016 SSE 5,4 22,5 0,0
16-07-2019 23,8     26,3     28,8 5,0 57 68 82 1.014 1.016 1.017 E 5,1 22,5 0,0
15-07-2019 23,8     26,4     30,0 6,2 44 68 78 1.012 1.012 1.014 S 4,1 17,7 0,0
14-07-2019 24,4     26,3     28,8 4,4 70 76 82 1.011 1.012 1.013 SE 4,9 22,5 0,0
13-07-2019 25,5     28,0     30,5 5,0 25 52 79 1.012 1.014 1.016 SE 6,6 27,3 0,0
12-07-2019 23,8     27,4     30,5 6,7 29 45 61 1.015 1.016 1.017 SSO 3,4 17,7 0,0
11-07-2019 22,7     26,7     30,5 7,8 34 52 65 1.015 1.016 1.016 SO 3,8 19,3 0,0
10-07-2019 22,2     25,6     28,8 6,6 43 63 78 1.014 1.015 1.016 SE 4,4 19,3 0,0
09-07-2019 21,6     25,7     28,8 7,2 36 66 84 1.011 1.013 1.015 SSO 4,4 20,9 0,0
08-07-2019 25,0     27,0     30,0 5,0 42 65 82 1.010 1.012 1.014 SE 3,7 22,5 1,5
07-07-2019 27,2     30,6     35,5 8,3 33 49 74 1.010 1.013 1.017 SSO 6,3 25,7 0,0
06-07-2019 24,4     27,5     33,3 8,9 46 72 84 1.012 1.015 1.018 S 5,5 30,5 0,0
05-07-2019 22,7     25,8     28,8 6,1 57 73 82 1.015 1.017 1.018 S 5,2 20,9 0,0
04-07-2019 23,8     27,6     32,2 8,4 32 46 78 1.013 1.016 1.018 ESE 8,1 28,9 0,0
03-07-2019 21,6     26,5     32,2 10,6 23 50 69 1.014 1.015 1.016 S 6,0 25,7 0,0
02-07-2019 22,7     25,8     28,8 6,1 53 68 82 1.014 1.016 1.017 ENE 6,7 27,3 0,0
01-07-2019 23,8     26,5     30,0 6,2 34 61 78 1.015 1.016 1.018 SSE 7,2 28,9 0,0
30-06-2019 23,3     29,8     36,1 12,8 16 33 49 1.016 1.017 1.018 SSE 6,0 27,3 0,0
29-06-2019 23,8     28,0     31,6 7,8 38 46 58 1.015 1.016 1.017 SSO 2,8 14,4 0,0
28-06-2019 23,8     29,0     33,8 10,0 32 43 54 1.016 1.017 1.018 S 4,3 20,9 0,0
27-06-2019 25,0     31,8     35,0 10,0 22 32 72 1.015 1.018 1.019 ENE 14,8 45,0 0,0
26-06-2019 21,6     25,4     31,1 9,5 54 72 85 1.016 1.017 1.019 S 3,7 17,7 0,0
25-06-2019 20,0     24,2     28,8 8,8 58 72 84 1.015 1.016 1.018 S 4,8 19,3 0,0
24-06-2019 22,7     26,1     30,5 7,8 22 47 80 1.013 1.014 1.016 SE 8,6 28,9 0,0
23-06-2019 18,8     24,2     29,4 10,6 32 59 82 1.014 1.015 1.016 SSE 6,3 30,5 0,0
22-06-2019 20,0     23,0     26,6 6,6 55 72 84 1.016 1.017 1.018 SSO 4,1 30,5 0,0
21-06-2019 21,1     23,0     26,1 5,0 60 75 84 1.013 1.015 1.017 SSO 4,7 19,3 0,0
20-06-2019 19,4     22,5     26,1 6,7 64 78 88 1.011 1.013 1.015 S 6,0 25,7 0,0
Últims 13 mesos disponibles
06/2019 15,5 19,2 25,0 23,3 23,3 27,4 36,1 20,6 32 59 78 1.010 1.016 1.023 SSO 6,2 48,2 0,0
05/2019 11,6 15,6 19,0 19,1 18,9 22,9 28,2 16,6 43 63 78 1.007 1.017 1.026 S 6,2 56,3 2,2
04/2019 10,1 12,8 16,6 15,8 15,6 19,3 25,0 14,9 41 64 86 1.001 1.014 1.027 SO 7,1 72,4 149,9
03/2019 8,2 10,6 12,7 14,6 13,4 19,0 24,3 16,1 41 57 76 1.012 1.024 1.032 SO 6,2 48,3 18,0
02/2019 6,6 8,7 11,1 12,7 13,7 17,2 21,2 14,6 47 61 72 1.022 1.028 1.034 OSO 4,1 33,8 0,0
Tots els anys disponibles
Temperatura (°C)
Humitat relativa (%)
Velocitat del vent i ràfega màxima (km/h)
Direcció del vent (°)
Pressió (hPa)
Precipitació (mm)
Nota sobre les dades: s'avisa a l'usuari de la provisionalitat i no oficialitat d'aquestes dades
Logo AVAMET blanc
Web allotjada a Sollutia
Llicència de Creative CommonsLa web d'AVAMET i els seus continguts estan subjectes a una llicència de
Reconeixement - No Comercial - Compartir igual
Properes estacions: Altea - Club Nàutic d'Altea (Soci), Ares del Maestrat (Ajuntament Soci),      - - - - -      Últimes estacions: Catadau - Urb. Lloma Molina (Inforatge), Ontinyent - El Pilar (Soci), Asp - Poliesportiu (Soci) - - -